sensor_id;sensor_type;location;lat;lon;timestamp;pressure;altitude;pressure_sealevel;temperature;humidity
9009;BME280;62813;51.424;6.762;2023-03-13T00:02:12;100175.94;;;9.31;83.14
9009;BME280;62813;51.424;6.762;2023-03-13T00:04:39;100177.69;;;9.30;83.18
9009;BME280;62813;51.424;6.762;2023-03-13T00:07:05;100169.97;;;9.29;83.84
9009;BME280;62813;51.424;6.762;2023-03-13T00:09:32;100159.78;;;9.26;84.65
9009;BME280;62813;51.424;6.762;2023-03-13T00:11:59;100158.09;;;9.25;85.21
9009;BME280;62813;51.424;6.762;2023-03-13T00:14:26;100150.31;;;9.25;85.64
9009;BME280;62813;51.424;6.762;2023-03-13T00:16:52;100148.69;;;9.22;85.93
9009;BME280;62813;51.424;6.762;2023-03-13T00:19:19;100146.19;;;9.20;86.91
9009;BME280;62813;51.424;6.762;2023-03-13T00:21:45;100140.16;;;9.20;86.93
9009;BME280;62813;51.424;6.762;2023-03-13T00:24:12;100130.56;;;9.22;86.52
9009;BME280;62813;51.424;6.762;2023-03-13T00:26:38;100124.63;;;9.20;87.13
9009;BME280;62813;51.424;6.762;2023-03-13T00:29:05;100125.53;;;9.19;87.20
9009;BME280;62813;51.424;6.762;2023-03-13T00:31:32;100116.09;;;9.18;87.31
9009;BME280;62813;51.424;6.762;2023-03-13T00:34:02;100110.09;;;9.17;87.70
9009;BME280;62813;51.424;6.762;2023-03-13T00:36:31;100107.56;;;9.16;88.42
9009;BME280;62813;51.424;6.762;2023-03-13T00:38:58;100102.50;;;9.13;88.91
9009;BME280;62813;51.424;6.762;2023-03-13T00:41:27;100104.25;;;9.12;88.77
9009;BME280;62813;51.424;6.762;2023-03-13T00:43:55;100100.00;;;9.11;89.11
9009;BME280;62813;51.424;6.762;2023-03-13T00:46:25;100101.66;;;9.12;89.24
9009;BME280;62813;51.424;6.762;2023-03-13T00:48:52;100095.56;;;9.13;90.12
9009;BME280;62813;51.424;6.762;2023-03-13T00:51:20;100088.66;;;9.14;89.58
9009;BME280;62813;51.424;6.762;2023-03-13T00:53:47;100082.63;;;9.13;90.38
9009;BME280;62813;51.424;6.762;2023-03-13T00:56:15;100069.75;;;9.12;90.47
9009;BME280;62813;51.424;6.762;2023-03-13T00:58:43;100068.09;;;9.11;90.68
9009;BME280;62813;51.424;6.762;2023-03-13T01:01:21;100056.06;;;9.10;92.00
9009;BME280;62813;51.424;6.762;2023-03-13T01:03:50;100055.22;;;9.09;91.69
9009;BME280;62813;51.424;6.762;2023-03-13T01:06:20;100050.22;;;9.05;93.15
9009;BME280;62813;51.424;6.762;2023-03-13T01:08:47;100054.56;;;9.04;93.05
9009;BME280;62813;51.424;6.762;2023-03-13T01:11:20;100041.69;;;9.03;93.33
9009;BME280;62813;51.424;6.762;2023-03-13T01:13:47;100040.78;;;9.04;93.10
9009;BME280;62813;51.424;6.762;2023-03-13T01:16:17;100029.59;;;9.03;93.89
9009;BME280;62813;51.424;6.762;2023-03-13T01:18:46;100022.72;;;9.02;93.69
9009;BME280;62813;51.424;6.762;2023-03-13T01:21:14;100017.56;;;9.02;94.69
9009;BME280;62813;51.424;6.762;2023-03-13T01:23:41;100019.44;;;8.99;95.24
9009;BME280;62813;51.424;6.762;2023-03-13T01:26:08;100009.16;;;8.97;95.49
9009;BME280;62813;51.424;6.762;2023-03-13T01:28:36;100009.16;;;8.97;95.23
9009;BME280;62813;51.424;6.762;2023-03-13T01:31:13;100009.16;;;8.97;95.52
9009;BME280;62813;51.424;6.762;2023-03-13T01:33:40;100006.66;;;8.95;95.71
9009;BME280;62813;51.424;6.762;2023-03-13T01:36:08;100001.47;;;8.95;95.95
9009;BME280;62813;51.424;6.762;2023-03-13T01:38:35;99993.75;;;8.94;96.33
9009;BME280;62813;51.424;6.762;2023-03-13T01:41:02;99993.00;;;8.92;96.94
9009;BME280;62813;51.424;6.762;2023-03-13T01:43:31;99992.22;;;8.90;97.56
9009;BME280;62813;51.424;6.762;2023-03-13T01:46:01;99970.59;;;8.91;97.68
9009;BME280;62813;51.424;6.762;2023-03-13T01:51:29;99955.28;;;8.86;98.87
9009;BME280;62813;51.424;6.762;2023-03-13T01:56:46;99942.50;;;8.83;100.00
9009;BME280;62813;51.424;6.762;2023-03-13T01:59:17;99939.06;;;8.83;100.00
9009;BME280;62813;51.424;6.762;2023-03-13T02:01:46;99929.56;;;8.83;100.00
9009;BME280;62813;51.424;6.762;2023-03-13T02:04:14;99933.91;;;8.83;100.00
9009;BME280;62813;51.424;6.762;2023-03-13T02:06:43;99930.47;;;8.82;100.00
9009;BME280;62813;51.424;6.762;2023-03-13T02:09:17;99910.69;;;8.81;100.00
9009;BME280;62813;51.424;6.762;2023-03-13T02:12:15;99910.69;;;8.81;100.00
9009;BME280;62813;51.424;6.762;2023-03-13T02:14:44;99898.50;;;8.83;100.00
9009;BME280;62813;51.424;6.762;2023-03-13T02:17:12;99889.16;;;8.81;100.00
9009;BME280;62813;51.424;6.762;2023-03-13T02:19:46;99886.50;;;8.82;100.00
9009;BME280;62813;51.424;6.762;2023-03-13T02:27:29;99862.13;;;8.86;100.00
9009;BME280;62813;51.424;6.762;2023-03-13T02:29:57;99860.31;;;8.88;100.00
9009;BME280;62813;51.424;6.762;2023-03-13T02:32:25;99868.91;;;8.89;100.00
9009;BME280;62813;51.424;6.762;2023-03-13T02:34:55;99855.81;;;8.92;100.00
9009;BME280;62813;51.424;6.762;2023-03-13T02:37:24;99847.31;;;8.90;100.00
9009;BME280;62813;51.424;6.762;2023-03-13T02:39:55;99842.97;;;8.90;100.00
9009;BME280;62813;51.424;6.762;2023-03-13T02:42:24;99831.53;;;8.94;100.00
9009;BME280;62813;51.424;6.762;2023-03-13T02:44:51;99830.66;;;8.95;100.00
9009;BME280;62813;51.424;6.762;2023-03-13T02:47:19;99836.50;;;8.99;100.00
9009;BME280;62813;51.424;6.762;2023-03-13T02:49:46;99829.44;;;9.03;100.00
9009;BME280;62813;51.424;6.762;2023-03-13T02:52:17;99833.56;;;9.07;100.00
9009;BME280;62813;51.424;6.762;2023-03-13T02:54:46;99830.97;;;9.07;100.00
9009;BME280;62813;51.424;6.762;2023-03-13T02:57:17;99823.19;;;9.07;100.00
9009;BME280;62813;51.424;6.762;2023-03-13T02:59:43;99816.22;;;9.09;100.00
9009;BME280;62813;51.424;6.762;2023-03-13T03:02:10;99808.28;;;9.12;100.00
9009;BME280;62813;51.424;6.762;2023-03-13T03:04:37;99795.19;;;9.15;100.00
9009;BME280;62813;51.424;6.762;2023-03-13T03:07:03;99788.19;;;9.17;100.00
9009;BME280;62813;51.424;6.762;2023-03-13T03:09:30;99789.94;;;9.16;100.00
9009;BME280;62813;51.424;6.762;2023-03-13T03:11:56;99774.31;;;9.18;100.00
9009;BME280;62813;51.424;6.762;2023-03-13T03:14:23;99796.53;;;9.22;100.00
9009;BME280;62813;51.424;6.762;2023-03-13T03:16:50;99799.91;;;9.24;100.00
9009;BME280;62813;51.424;6.762;2023-03-13T03:19:16;99794.47;;;9.29;100.00
9009;BME280;62813;51.424;6.762;2023-03-13T03:21:43;99789.38;;;9.27;100.00
9009;BME280;62813;51.424;6.762;2023-03-13T03:24:09;99778.03;;;9.30;100.00
9009;BME280;62813;51.424;6.762;2023-03-13T03:26:39;99782.22;;;9.32;100.00
9009;BME280;62813;51.424;6.762;2023-03-13T03:29:05;99773.53;;;9.33;100.00
9009;BME280;62813;51.424;6.762;2023-03-13T03:31:33;99776.88;;;9.35;100.00
9009;BME280;62813;51.424;6.762;2023-03-13T03:34:00;99776.75;;;9.38;100.00
9009;BME280;62813;51.424;6.762;2023-03-13T03:36:26;99780.09;;;9.40;100.00
9009;BME280;62813;51.424;6.762;2023-03-13T03:38:54;99782.75;;;9.39;100.00
9009;BME280;62813;51.424;6.762;2023-03-13T03:41:20;99780.81;;;9.42;100.00
9009;BME280;62813;51.424;6.762;2023-03-13T03:43:47;99769.53;;;9.43;100.00
9009;BME280;62813;51.424;6.762;2023-03-13T03:46:14;99774.50;;;9.48;100.00
9009;BME280;62813;51.424;6.762;2023-03-13T03:48:41;99785.38;;;9.55;100.00
9009;BME280;62813;51.424;6.762;2023-03-13T03:51:08;99780.94;;;9.57;100.00
9009;BME280;62813;51.424;6.762;2023-03-13T03:53:35;99794.69;;;9.59;100.00
9009;BME280;62813;51.424;6.762;2023-03-13T03:56:01;99791.09;;;9.61;100.00
9009;BME280;62813;51.424;6.762;2023-03-13T03:58:28;99789.25;;;9.63;100.00
9009;BME280;62813;51.424;6.762;2023-03-13T04:00:58;99781.75;;;9.74;100.00
9009;BME280;62813;51.424;6.762;2023-03-13T04:03:26;99780.75;;;9.77;100.00
9009;BME280;62813;51.424;6.762;2023-03-13T04:05:52;99778.66;;;9.84;100.00
9009;BME280;62813;51.424;6.762;2023-03-13T04:08:19;99780.41;;;9.83;100.00
9009;BME280;62813;51.424;6.762;2023-03-13T04:10:46;99772.41;;;9.88;100.00
9009;BME280;62813;51.424;6.762;2023-03-13T04:13:12;99765.56;;;9.87;100.00
9009;BME280;62813;51.424;6.762;2023-03-13T04:15:40;99759.44;;;9.88;100.00
9009;BME280;62813;51.424;6.762;2023-03-13T04:18:07;99755.69;;;9.93;100.00
9009;BME280;62813;51.424;6.762;2023-03-13T04:20:34;99723.16;;;10.03;100.00
9009;BME280;62813;51.424;6.762;2023-03-13T04:23:01;99742.03;;;10.05;100.00
9009;BME280;62813;51.424;6.762;2023-03-13T04:25:28;99731.44;;;10.10;100.00
9009;BME280;62813;51.424;6.762;2023-03-13T04:27:55;99724.31;;;10.14;100.00
9009;BME280;62813;51.424;6.762;2023-03-13T04:30:21;99742.91;;;10.22;100.00
9009;BME280;62813;51.424;6.762;2023-03-13T04:32:48;99739.19;;;10.26;100.00
9009;BME280;62813;51.424;6.762;2023-03-13T04:35:16;99734.69;;;10.29;100.00
9009;BME280;62813;51.424;6.762;2023-03-13T04:37:44;99745.56;;;10.36;100.00
9009;BME280;62813;51.424;6.762;2023-03-13T04:40:11;99734.66;;;10.45;100.00
9009;BME280;62813;51.424;6.762;2023-03-13T04:42:40;99736.06;;;10.51;100.00
9009;BME280;62813;51.424;6.762;2023-03-13T04:45:10;99725.41;;;10.55;100.00
9009;BME280;62813;51.424;6.762;2023-03-13T04:47:37;99736.81;;;10.53;100.00
9009;BME280;62813;51.424;6.762;2023-03-13T04:50:04;99733.78;;;10.60;100.00
9009;BME280;62813;51.424;6.762;2023-03-13T04:52:31;99723.88;;;10.67;100.00
9009;BME280;62813;51.424;6.762;2023-03-13T04:54:58;99722.84;;;10.70;100.00
9009;BME280;62813;51.424;6.762;2023-03-13T04:57:24;99720.34;;;10.68;100.00
9009;BME280;62813;51.424;6.762;2023-03-13T04:59:51;99718.09;;;10.78;100.00
9009;BME280;62813;51.424;6.762;2023-03-13T05:02:17;99711.13;;;10.78;100.00
9009;BME280;62813;51.424;6.762;2023-03-13T05:04:44;99704.34;;;10.76;100.00
9009;BME280;62813;51.424;6.762;2023-03-13T05:07:10;99713.78;;;10.77;100.00
9009;BME280;62813;51.424;6.762;2023-03-13T05:09:40;99715.50;;;10.78;100.00
9009;BME280;62813;51.424;6.762;2023-03-13T05:12:07;99707.69;;;10.78;100.00
9009;BME280;62813;51.424;6.762;2023-03-13T05:14:33;99706.09;;;10.75;100.00
9009;BME280;62813;51.424;6.762;2023-03-13T05:17:00;99690.38;;;10.78;100.00
9009;BME280;62813;51.424;6.762;2023-03-13T05:19:27;99699.00;;;10.79;100.00
9009;BME280;62813;51.424;6.762;2023-03-13T05:21:53;99688.16;;;10.86;100.00
9009;BME280;62813;51.424;6.762;2023-03-13T05:24:20;99677.88;;;10.85;100.00
9009;BME280;62813;51.424;6.762;2023-03-13T05:26:47;99684.38;;;10.92;100.00
9009;BME280;62813;51.424;6.762;2023-03-13T05:29:14;99682.84;;;10.88;100.00
9009;BME280;62813;51.424;6.762;2023-03-13T05:31:40;99684.53;;;10.89;100.00
9009;BME280;62813;51.424;6.762;2023-03-13T05:34:07;99684.44;;;10.91;100.00
9009;BME280;62813;51.424;6.762;2023-03-13T05:36:34;99695.50;;;10.94;100.00
9009;BME280;62813;51.424;6.762;2023-03-13T05:39:00;99693.06;;;10.91;100.00
9009;BME280;62813;51.424;6.762;2023-03-13T05:41:27;99691.72;;;11.00;100.00
9009;BME280;62813;51.424;6.762;2023-03-13T05:43:53;99698.69;;;10.99;100.00
9009;BME280;62813;51.424;6.762;2023-03-13T05:46:20;99698.59;;;11.01;100.00
9009;BME280;62813;51.424;6.762;2023-03-13T05:48:47;99696.00;;;11.01;100.00
9009;BME280;62813;51.424;6.762;2023-03-13T05:51:14;99690.91;;;10.99;100.00
9009;BME280;62813;51.424;6.762;2023-03-13T05:53:40;99679.22;;;11.06;100.00
9009;BME280;62813;51.424;6.762;2023-03-13T05:56:07;99682.53;;;11.08;100.00
9009;BME280;62813;51.424;6.762;2023-03-13T05:58:34;99693.41;;;11.15;100.00
9009;BME280;62813;51.424;6.762;2023-03-13T06:01:11;99683.66;;;11.19;100.00
9009;BME280;62813;51.424;6.762;2023-03-13T06:03:38;99673.09;;;11.22;100.00
9009;BME280;62813;51.424;6.762;2023-03-13T06:06:05;99679.13;;;11.22;100.00
9009;BME280;62813;51.424;6.762;2023-03-13T06:08:32;99674.03;;;11.21;100.00
9009;BME280;62813;51.424;6.762;2023-03-13T06:11:00;99666.88;;;11.24;100.00
9009;BME280;62813;51.424;6.762;2023-03-13T06:13:27;99670.84;;;11.30;100.00
9009;BME280;62813;51.424;6.762;2023-03-13T06:15:55;99677.63;;;11.32;100.00
9009;BME280;62813;51.424;6.762;2023-03-13T06:18:23;99668.81;;;11.35;100.00
9009;BME280;62813;51.424;6.762;2023-03-13T06:20:56;99676.78;;;11.46;100.00
9009;BME280;62813;51.424;6.762;2023-03-13T06:23:23;99676.97;;;11.43;100.00
9009;BME280;62813;51.424;6.762;2023-03-13T06:25:49;99668.03;;;11.47;100.00
9009;BME280;62813;51.424;6.762;2023-03-13T06:28:16;99671.41;;;11.49;100.00
9009;BME280;62813;51.424;6.762;2023-03-13T06:30:42;99662.38;;;11.55;100.00
9009;BME280;62813;51.424;6.762;2023-03-13T06:33:09;99669.34;;;11.54;100.00
9009;BME280;62813;51.424;6.762;2023-03-13T06:35:39;99669.16;;;11.57;100.00
9009;BME280;62813;51.424;6.762;2023-03-13T06:38:23;99680.38;;;11.58;100.00
9009;BME280;62813;51.424;6.762;2023-03-13T06:40:49;99684.94;;;11.54;100.00
9009;BME280;62813;51.424;6.762;2023-03-13T06:43:16;99686.78;;;11.52;100.00
9009;BME280;62813;51.424;6.762;2023-03-13T06:45:42;99684.28;;;11.51;100.00
9009;BME280;62813;51.424;6.762;2023-03-13T06:48:09;99684.94;;;11.54;100.00
9009;BME280;62813;51.424;6.762;2023-03-13T06:50:39;99672.31;;;11.62;99.26
9009;BME280;62813;51.424;6.762;2023-03-13T06:53:07;99687.91;;;11.62;98.84
9009;BME280;62813;51.424;6.762;2023-03-13T06:55:39;99679.19;;;11.63;98.92
9009;BME280;62813;51.424;6.762;2023-03-13T06:58:06;99674.50;;;11.68;98.71
9009;BME280;62813;51.424;6.762;2023-03-13T07:00:32;99676.44;;;11.79;97.45
9009;BME280;62813;51.424;6.762;2023-03-13T07:03:00;99671.03;;;11.82;96.91
9009;BME280;62813;51.424;6.762;2023-03-13T07:05:26;99679.88;;;11.80;97.14
9009;BME280;62813;51.424;6.762;2023-03-13T07:07:53;99664.50;;;11.77;97.27
9009;BME280;62813;51.424;6.762;2023-03-13T07:10:20;99670.69;;;11.74;97.23
9009;BME280;62813;51.424;6.762;2023-03-13T07:12:46;99668.66;;;11.79;96.82
9009;BME280;62813;51.424;6.762;2023-03-13T07:15:13;99678.22;;;11.79;96.52
9009;BME280;62813;51.424;6.762;2023-03-13T07:17:39;99662.22;;;11.85;95.97
9009;BME280;62813;51.424;6.762;2023-03-13T07:20:07;99657.66;;;11.88;95.96
9009;BME280;62813;51.424;6.762;2023-03-13T07:22:36;99658.47;;;11.89;95.70
9009;BME280;62813;51.424;6.762;2023-03-13T07:25:04;99654.03;;;11.91;95.68
9009;BME280;62813;51.424;6.762;2023-03-13T07:27:31;99651.13;;;11.95;95.02
9009;BME280;62813;51.424;6.762;2023-03-13T07:29:58;99648.03;;;12.03;93.97
9009;BME280;62813;51.424;6.762;2023-03-13T07:32:24;99651.41;;;12.05;93.44
9009;BME280;62813;51.424;6.762;2023-03-13T07:34:51;99640.06;;;12.06;93.45
9009;BME280;62813;51.424;6.762;2023-03-13T07:37:18;99647.75;;;12.08;93.65
9009;BME280;62813;51.424;6.762;2023-03-13T07:39:44;99643.81;;;12.15;92.61
9009;BME280;62813;51.424;6.762;2023-03-13T07:42:11;99644.44;;;12.18;91.69
9009;BME280;62813;51.424;6.762;2023-03-13T07:44:38;99642.59;;;12.20;91.88
9009;BME280;62813;51.424;6.762;2023-03-13T07:47:04;99637.72;;;12.29;91.16
9009;BME280;62813;51.424;6.762;2023-03-13T07:49:33;99628.25;;;12.28;90.96
9009;BME280;62813;51.424;6.762;2023-03-13T07:52:04;99629.38;;;12.23;90.89
9009;BME280;62813;51.424;6.762;2023-03-13T07:54:31;99638.84;;;12.24;90.58
9009;BME280;62813;51.424;6.762;2023-03-13T07:56:57;99639.66;;;12.25;90.48
9009;BME280;62813;51.424;6.762;2023-03-13T07:59:24;99641.38;;;12.26;90.24
9009;BME280;62813;51.424;6.762;2023-03-13T08:01:50;99643.84;;;12.28;89.60
9009;BME280;62813;51.424;6.762;2023-03-13T08:04:17;99637.00;;;12.27;89.23
9009;BME280;62813;51.424;6.762;2023-03-13T08:06:44;99624.88;;;12.25;89.39
9009;BME280;62813;51.424;6.762;2023-03-13T08:09:11;99637.91;;;12.25;88.93
9009;BME280;62813;51.424;6.762;2023-03-13T08:11:38;99626.75;;;12.23;89.27
9009;BME280;62813;51.424;6.762;2023-03-13T08:14:09;99629.63;;;12.33;88.11
9009;BME280;62813;51.424;6.762;2023-03-13T08:16:36;99629.63;;;12.33;87.95
9009;BME280;62813;51.424;6.762;2023-03-13T08:19:03;99632.00;;;12.36;87.87
9009;BME280;62813;51.424;6.762;2023-03-13T08:21:35;99627.13;;;12.44;87.19
9009;BME280;62813;51.424;6.762;2023-03-13T08:24:05;99649.53;;;12.47;87.20
9009;BME280;62813;51.424;6.762;2023-03-13T08:26:35;99632.03;;;12.49;86.82
9009;BME280;62813;51.424;6.762;2023-03-13T08:29:08;99642.25;;;12.52;86.76
9009;BME280;62813;51.424;6.762;2023-03-13T08:34:08;99642.25;;;12.52;86.79
9009;BME280;62813;51.424;6.762;2023-03-13T08:36:36;99647.28;;;12.55;86.72
9009;BME280;62813;51.424;6.762;2023-03-13T08:39:13;99640.19;;;12.57;86.34
9009;BME280;62813;51.424;6.762;2023-03-13T08:41:40;99641.44;;;12.64;86.20
9009;BME280;62813;51.424;6.762;2023-03-13T08:44:10;99652.91;;;12.74;85.66
9009;BME280;62813;51.424;6.762;2023-03-13T08:46:37;99651.13;;;12.75;85.61
9009;BME280;62813;51.424;6.762;2023-03-13T08:49:06;99652.06;;;12.74;85.36
9009;BME280;62813;51.424;6.762;2023-03-13T08:51:33;99653.00;;;12.73;85.73
9009;BME280;62813;51.424;6.762;2023-03-13T08:54:01;99651.66;;;12.80;85.67
9009;BME280;62813;51.424;6.762;2023-03-13T08:56:29;99642.91;;;12.81;85.82
9009;BME280;62813;51.424;6.762;2023-03-13T08:58:58;99646.03;;;12.86;85.44
9009;BME280;62813;51.424;6.762;2023-03-13T09:01:28;99651.25;;;12.86;85.57
9009;BME280;62813;51.424;6.762;2023-03-13T09:03:56;99632.72;;;12.91;85.44
9009;BME280;62813;51.424;6.762;2023-03-13T09:06:23;99619.28;;;12.97;85.23
9009;BME280;62813;51.424;6.762;2023-03-13T09:08:50;99628.53;;;13.01;85.09
9009;BME280;62813;51.424;6.762;2023-03-13T09:11:19;99622.28;;;13.03;85.44
9009;BME280;62813;51.424;6.762;2023-03-13T09:13:48;99621.34;;;13.04;85.30
9009;BME280;62813;51.424;6.762;2023-03-13T09:16:22;99612.25;;;13.10;85.36
9009;BME280;62813;51.424;6.762;2023-03-13T09:18:50;99605.78;;;13.16;85.43
9009;BME280;62813;51.424;6.762;2023-03-13T09:21:19;99601.41;;;13.16;84.92
9009;BME280;62813;51.424;6.762;2023-03-13T09:23:47;99603.06;;;13.17;85.01
9009;BME280;62813;51.424;6.762;2023-03-13T09:26:14;99606.41;;;13.19;85.45
9009;BME280;62813;51.424;6.762;2023-03-13T09:28:42;99610.47;;;13.23;85.32
9009;BME280;62813;51.424;6.762;2023-03-13T09:31:14;99603.47;;;13.24;85.47
9009;BME280;62813;51.424;6.762;2023-03-13T09:33:43;99599.72;;;13.28;85.33
9009;BME280;62813;51.424;6.762;2023-03-13T09:36:11;99591.69;;;13.31;85.58
9009;BME280;62813;51.424;6.762;2023-03-13T09:38:38;99584.59;;;13.33;85.18
9009;BME280;62813;51.424;6.762;2023-03-13T09:43:55;99589.63;;;13.23;87.61
9009;BME280;62813;51.424;6.762;2023-03-13T09:47:01;99590.56;;;13.22;87.77
9009;BME280;62813;51.424;6.762;2023-03-13T09:49:33;99571.19;;;13.26;87.63
9009;BME280;62813;51.424;6.762;2023-03-13T09:52:13;99567.41;;;13.30;87.54
9009;BME280;62813;51.424;6.762;2023-03-13T09:58:33;99573.66;;;13.28;88.03
9009;BME280;62813;51.424;6.762;2023-03-13T10:00:49;99568.97;;;13.33;88.48
9009;BME280;62813;51.424;6.762;2023-03-13T10:03:39;99573.22;;;13.34;87.89
9009;BME280;62813;51.424;6.762;2023-03-13T10:06:17;99555.50;;;13.39;87.39
9009;BME280;62813;51.424;6.762;2023-03-13T10:08:44;99562.53;;;13.50;86.67
9009;BME280;62813;51.424;6.762;2023-03-13T10:11:24;99568.16;;;13.56;87.56
9009;BME280;62813;51.424;6.762;2023-03-13T10:16:41;99542.28;;;13.77;85.82
9009;BME280;62813;51.424;6.762;2023-03-13T10:19:13;99548.88;;;13.94;84.80
9009;BME280;62813;51.424;6.762;2023-03-13T10:21:42;99536.69;;;13.95;83.83
9009;BME280;62813;51.424;6.762;2023-03-13T10:24:18;99534.81;;;13.97;83.15
9009;BME280;62813;51.424;6.762;2023-03-13T10:26:51;99535.03;;;13.94;83.24
9009;BME280;62813;51.424;6.762;2023-03-13T10:29:21;99527.19;;;13.94;83.09
9009;BME280;62813;51.424;6.762;2023-03-13T10:31:58;99530.97;;;13.89;83.08
9009;BME280;62813;51.424;6.762;2023-03-13T10:34:27;99536.22;;;14.01;82.85
9009;BME280;62813;51.424;6.762;2023-03-13T10:36:57;99528.91;;;14.06;82.57
9009;BME280;62813;51.424;6.762;2023-03-13T10:39:27;99515.97;;;14.15;81.84
9009;BME280;62813;51.424;6.762;2023-03-13T10:44:45;99497.88;;;14.25;79.93
9009;BME280;62813;51.424;6.762;2023-03-13T10:47:13;99495.97;;;14.27;79.71
9009;BME280;62813;51.424;6.762;2023-03-13T10:49:51;99483.63;;;14.29;79.69
9009;BME280;62813;51.424;6.762;2023-03-13T10:55:02;99481.59;;;14.44;78.99
9009;BME280;62813;51.424;6.762;2023-03-13T10:57:40;99482.09;;;14.49;78.04
9009;BME280;62813;51.424;6.762;2023-03-13T11:00:37;99474.72;;;14.43;78.44
9009;BME280;62813;51.424;6.762;2023-03-13T11:03:12;99465.38;;;14.40;79.24
9009;BME280;62813;51.424;6.762;2023-03-13T11:05:42;99466.81;;;14.44;79.15
9009;BME280;62813;51.424;6.762;2023-03-13T11:08:17;99456.22;;;14.46;78.17
9009;BME280;62813;51.424;6.762;2023-03-13T11:11:03;99476.53;;;14.54;77.98
9009;BME280;62813;51.424;6.762;2023-03-13T11:13:38;99466.31;;;14.62;77.54
9009;BME280;62813;51.424;6.762;2023-03-13T11:16:25;99478.41;;;14.63;76.51
9009;BME280;62813;51.424;6.762;2023-03-13T11:22:00;99465.22;;;14.76;75.77
9009;BME280;62813;51.424;6.762;2023-03-13T11:28:26;99455.34;;;14.79;76.06
9009;BME280;62813;51.424;6.762;2023-03-13T11:31:14;99454.66;;;14.88;74.76
9009;BME280;62813;51.424;6.762;2023-03-13T11:45:10;99440.50;;;15.02;72.29
9009;BME280;62813;51.424;6.762;2023-03-13T12:01:52;99388.06;;;15.15;69.92
9009;BME280;62813;51.424;6.762;2023-03-13T12:04:25;99390.69;;;15.15;69.00
9009;BME280;62813;51.424;6.762;2023-03-13T12:07:27;99377.38;;;15.18;69.87
9009;BME280;62813;51.424;6.762;2023-03-13T12:10:00;99372.03;;;15.19;69.26
9009;BME280;62813;51.424;6.762;2023-03-13T12:13:01;99357.03;;;15.21;69.38
9009;BME280;62813;51.424;6.762;2023-03-13T12:15:28;99373.00;;;15.39;67.53
9009;BME280;62813;51.424;6.762;2023-03-13T12:17:58;99379.50;;;15.45;65.40
9009;BME280;62813;51.424;6.762;2023-03-13T12:20:37;99366.81;;;15.40;66.13
9009;BME280;62813;51.424;6.762;2023-03-13T12:25:36;99372.03;;;15.40;65.65
9009;BME280;62813;51.424;6.762;2023-03-13T12:30:44;99368.03;;;15.36;66.93
9009;BME280;62813;51.424;6.762;2023-03-13T12:33:24;99353.28;;;15.35;67.18
9009;BME280;62813;51.424;6.762;2023-03-13T12:36:12;99346.53;;;15.33;68.40
9009;BME280;62813;51.424;6.762;2023-03-13T12:38:45;99331.69;;;15.33;68.15
9009;BME280;62813;51.424;6.762;2023-03-13T12:41:28;99333.09;;;15.37;67.30
9009;BME280;62813;51.424;6.762;2023-03-13T12:43:58;99337.59;;;15.35;68.08
9009;BME280;62813;51.424;6.762;2023-03-13T12:52:11;99319.09;;;15.27;68.45
9009;BME280;62813;51.424;6.762;2023-03-13T13:00:00;99305.22;;;15.26;68.31
9009;BME280;62813;51.424;6.762;2023-03-13T13:02:31;99310.31;;;15.28;68.42
9009;BME280;62813;51.424;6.762;2023-03-13T13:05:00;99307.31;;;15.33;67.80
9009;BME280;62813;51.424;6.762;2023-03-13T13:07:30;99294.56;;;15.39;67.43
9009;BME280;62813;51.424;6.762;2023-03-13T13:10:18;99295.25;;;15.41;66.65
9009;BME280;62813;51.424;6.762;2023-03-13T13:15:58;99278.72;;;15.62;64.70
9009;BME280;62813;51.424;6.762;2023-03-13T13:18:27;99283.03;;;15.72;64.10
9009;BME280;62813;51.424;6.762;2023-03-13T13:23:28;99270.63;;;15.65;64.82
9009;BME280;62813;51.424;6.762;2023-03-13T13:28:58;99259.44;;;15.63;65.24
9009;BME280;62813;51.424;6.762;2023-03-13T13:37:01;99257.91;;;15.50;66.73
9009;BME280;62813;51.424;6.762;2023-03-13T13:39:40;99260.63;;;15.49;67.22
9009;BME280;62813;51.424;6.762;2023-03-13T13:45:00;99258.97;;;15.48;66.71
9009;BME280;62813;51.424;6.762;2023-03-13T13:47:30;99247.69;;;15.47;66.73
9009;BME280;62813;51.424;6.762;2023-03-13T13:49:59;99248.19;;;15.41;67.23
9009;BME280;62813;51.424;6.762;2023-03-13T13:52:39;99241.31;;;15.40;67.37
9009;BME280;62813;51.424;6.762;2023-03-13T13:55:31;99244.88;;;15.39;67.68
9009;BME280;62813;51.424;6.762;2023-03-13T13:58:02;99239.38;;;15.42;67.37
9009;BME280;62813;51.424;6.762;2023-03-13T14:00:40;99232.25;;;15.44;66.85
9009;BME280;62813;51.424;6.762;2023-03-13T14:03:26;99225.09;;;15.46;67.27
9009;BME280;62813;51.424;6.762;2023-03-13T14:05:59;99233.22;;;15.43;67.65
9009;BME280;62813;51.424;6.762;2023-03-13T14:08:32;99235.41;;;15.38;67.83
9009;BME280;62813;51.424;6.762;2023-03-13T14:14:16;99236.88;;;15.31;68.02
9009;BME280;62813;51.424;6.762;2023-03-13T14:16:48;99229.16;;;15.30;68.70
9009;BME280;62813;51.424;6.762;2023-03-13T14:19:32;99230.81;;;15.31;68.48
9009;BME280;62813;51.424;6.762;2023-03-13T14:22:07;99229.03;;;15.31;69.14
9009;BME280;62813;51.424;6.762;2023-03-13T14:24:36;99222.19;;;15.40;68.62
9009;BME280;62813;51.424;6.762;2023-03-13T14:27:17;99213.50;;;15.39;69.10
9009;BME280;62813;51.424;6.762;2023-03-13T14:30:06;99212.69;;;15.39;69.45
9009;BME280;62813;51.424;6.762;2023-03-13T14:32:35;99204.16;;;15.37;69.61
9009;BME280;62813;51.424;6.762;2023-03-13T14:35:03;99207.16;;;15.32;69.89
9009;BME280;62813;51.424;6.762;2023-03-13T14:37:51;99201.91;;;15.32;70.05
9009;BME280;62813;51.424;6.762;2023-03-13T14:40:23;99207.53;;;15.27;70.54
9009;BME280;62813;51.424;6.762;2023-03-13T14:42:55;99192.16;;;15.34;70.23
9009;BME280;62813;51.424;6.762;2023-03-13T14:47:53;99186.84;;;15.45;69.14
9009;BME280;62813;51.424;6.762;2023-03-13T14:50:23;99207.94;;;15.53;68.61
9009;BME280;62813;51.424;6.762;2023-03-13T14:53:00;99195.44;;;15.57;68.97
9009;BME280;62813;51.424;6.762;2023-03-13T14:55:33;99196.25;;;15.58;69.39
9009;BME280;62813;51.424;6.762;2023-03-13T14:58:03;99194.72;;;15.55;68.98
9009;BME280;62813;51.424;6.762;2023-03-13T15:05:44;99156.69;;;15.41;68.18
9009;BME280;62813;51.424;6.762;2023-03-13T15:08:20;99157.94;;;15.37;68.26
9009;BME280;62813;51.424;6.762;2023-03-13T15:10:48;99163.84;;;15.39;68.14